チューク諸島 の空港の天気 - METARとTAF

チューク国際空港 ( PTKK / TKK ) - ミクロネシア連邦 チューク諸島
飛行場実況気象(Metar)
観測時間06/18 04:53 +10 (06/17 18:53 UTC)
風向・風速不定 2m/s
視程10km以上
天気現象
少しの雲 雲底高度 430m
全天の4割程度の雲 雲底高度 3660m
全天の8割程度の雲 雲底高度 8530m
気温28.1℃
湿度78%
気圧1008.4hPa
METARPTKK 171853Z VRB03KT 15SM FEW014 SCT120 BKN280 28/24 A2978 RMK SLP084 T02810238
過去の天気等 Google飛行場航空写真 Wunderground天気予報

過去48時間のMETAR

飛行場予報(TAF)
発表時間: 6/18 03:26 +10 (6/17 17:26 UTC)
予報対象時間: 18日4時 +10 ~ 19日4時 +10
風向・風速北東 4m/s
視程10km以上
少しの雲 雲底高度 460m
全天の4割程度の雲 雲底高度 3660m
PTKK 171726Z 1718/1818 04008KT P6SM FEW015 SCT120